createdAt,value
2023-05-06T00:00:49.762Z,101125.09
2023-05-06T00:03:21.626Z,101127.97
2023-05-06T00:05:53.189Z,101132.69
2023-05-06T00:08:25.001Z,101127.97
2023-05-06T00:10:56.489Z,101132.69
2023-05-06T00:13:28.259Z,101131.47
2023-05-06T00:15:59.732Z,101133.50
2023-05-06T00:18:31.564Z,101132.47
2023-05-06T00:21:03.062Z,101135.34
2023-05-06T00:23:34.536Z,101139.25
2023-05-06T00:26:05.995Z,101133.31
2023-05-06T00:28:37.476Z,101131.06
2023-05-06T00:31:09.274Z,101121.03
2023-05-06T00:33:40.738Z,101116.50
2023-05-06T00:36:12.229Z,101106.88
2023-05-06T00:38:43.684Z,101093.78
2023-05-06T00:41:15.646Z,101084.94
2023-05-06T00:43:47.172Z,101072.03
2023-05-06T00:46:18.992Z,101064.88
2023-05-06T00:48:50.489Z,101062.03
2023-05-06T00:51:22.375Z,101064.47
2023-05-06T00:53:53.821Z,101064.47
2023-05-06T00:56:25.461Z,101061.19
2023-05-06T00:58:57.271Z,101057.09
2023-05-06T01:01:29.202Z,101052.19
2023-05-06T01:04:01.144Z,101045.44
2023-05-06T01:06:32.676Z,101044.00
2023-05-06T01:09:04.458Z,101046.47
2023-05-06T01:11:35.939Z,101048.91
2023-05-06T01:14:07.785Z,101052.59
2023-05-06T01:16:39.328Z,101055.06
2023-05-06T01:19:11.286Z,101047.06
2023-05-06T01:21:42.735Z,101041.53
2023-05-06T01:24:14.510Z,101039.47
2023-05-06T01:26:45.941Z,101041.34
2023-05-06T01:29:17.726Z,101045.44
2023-05-06T01:31:49.512Z,101039.28
2023-05-06T01:34:21.235Z,101040.13
2023-05-06T01:36:53.007Z,101046.06
2023-05-06T01:39:24.473Z,101034.78
2023-05-06T01:41:56.298Z,101025.75
2023-05-06T01:44:27.802Z,101034.97
2023-05-06T01:46:59.611Z,101039.25
2023-05-06T01:49:31.069Z,101041.50
2023-05-06T01:52:02.989Z,101035.38
2023-05-06T01:54:34.503Z,101036.59
2023-05-06T01:57:06.457Z,101030.88
2023-05-06T01:59:37.933Z,101028.63
2023-05-06T02:02:09.841Z,101026.16
2023-05-06T02:04:41.819Z,101031.69
2023-05-06T02:07:13.274Z,101034.75
2023-05-06T02:09:45.198Z,101045.59
2023-05-06T02:12:16.674Z,101044.56
2023-05-06T02:14:48.465Z,101051.75
2023-05-06T02:17:19.950Z,101050.09
2023-05-06T02:19:51.598Z,101052.75
2023-05-06T02:22:23.071Z,101054.59
2023-05-06T02:24:54.725Z,101054.19
2023-05-06T02:27:26.465Z,101052.56
2023-05-06T02:29:58.217Z,101052.75
2023-05-06T02:32:29.857Z,101040.50
2023-05-06T02:35:01.302Z,101042.53
2023-05-06T02:37:33.124Z,101053.78
2023-05-06T02:40:04.603Z,101043.56
2023-05-06T02:42:36.109Z,101054.00
2023-05-06T02:45:07.754Z,101048.66
2023-05-06T02:47:39.465Z,101054.00
2023-05-06T02:50:10.936Z,101055.41
2023-05-06T02:52:42.677Z,101050.06
2023-05-06T02:55:14.166Z,101047.22
2023-05-06T02:57:45.881Z,101051.25
2023-05-06T03:00:17.642Z,100796.66
2023-05-06T03:02:49.449Z,101034.88
2023-05-06T03:05:21.282Z,101032.22
2023-05-06T03:07:52.732Z,101032.41
2023-05-06T03:10:24.485Z,101046.72
2023-05-06T03:12:56.036Z,101042.19
2023-05-06T03:15:27.759Z,101040.97
2023-05-06T03:17:59.242Z,101038.31
2023-05-06T03:20:31.049Z,101036.81
2023-05-06T03:23:02.506Z,101037.63
2023-05-06T03:25:34.004Z,101029.50
2023-05-06T03:28:05.467Z,101035.22
2023-05-06T03:30:36.975Z,101040.56
2023-05-06T03:33:08.938Z,101035.44
2023-05-06T03:35:40.431Z,101033.94
2023-05-06T03:38:11.881Z,100530.69
2023-05-06T03:40:43.334Z,101038.09
2023-05-06T03:43:15.158Z,101034.81
2023-05-06T03:45:46.685Z,101031.91
2023-05-06T03:48:18.617Z,101032.09
2023-05-06T03:50:51.053Z,101032.09
2023-05-06T03:53:23.018Z,101022.69
2023-05-06T03:55:59.167Z,101016.53
2023-05-06T03:58:30.985Z,101009.53
2023-05-06T04:01:02.890Z,101022.88
2023-05-06T04:03:34.423Z,101022.06
2023-05-06T04:06:06.205Z,101016.13
2023-05-06T04:08:37.712Z,101013.41
2023-05-06T04:11:09.345Z,101013.84
2023-05-06T04:13:40.813Z,101019.53
2023-05-06T04:16:12.694Z,101016.69
2023-05-06T04:18:44.195Z,101024.44
2023-05-06T04:21:16.069Z,101023.56
2023-05-06T04:23:47.537Z,101027.63
2023-05-06T04:26:19.326Z,101036.59
2023-05-06T04:28:50.880Z,101029.66
2023-05-06T04:31:22.676Z,101037.69
2023-05-06T04:33:54.329Z,101032.16
2023-05-06T04:36:25.759Z,101040.38
2023-05-06T04:38:57.531Z,101031.78
2023-05-06T04:41:28.996Z,101041.25
2023-05-06T04:44:00.843Z,101050.13
2023-05-06T04:46:32.279Z,101044.81
2023-05-06T04:49:04.051Z,101062.00
2023-05-06T04:51:35.500Z,101054.63
2023-05-06T04:54:07.340Z,101052.84
2023-05-06T04:56:38.808Z,101060.81
2023-05-06T04:59:10.472Z,101061.03
2023-05-06T05:01:42.309Z,101056.97
2023-05-06T05:04:13.813Z,101063.16
2023-05-06T05:06:45.438Z,101059.25
2023-05-06T05:09:16.900Z,101065.78
2023-05-06T05:11:48.722Z,101066.94
2023-05-06T05:14:20.168Z,101073.06
2023-05-06T05:16:51.692Z,101064.91
2023-05-06T05:19:23.174Z,101067.81
2023-05-06T05:21:55.006Z,101078.44
2023-05-06T05:24:26.801Z,101072.66
2023-05-06T05:26:58.602Z,101076.75
2023-05-06T05:29:30.212Z,101073.06
2023-05-06T05:32:01.706Z,101069.91
2023-05-06T05:34:33.539Z,101069.34
2023-05-06T05:37:04.996Z,101075.50
2023-05-06T05:39:36.486Z,101068.16
2023-05-06T05:42:07.948Z,101068.66
2023-05-06T05:44:39.464Z,101080.09
2023-05-06T05:47:10.995Z,101078.50
2023-05-06T05:49:42.710Z,101082.56
2023-05-06T05:52:14.149Z,101077.44
2023-05-06T05:54:45.905Z,101083.19
2023-05-06T05:57:17.724Z,101078.53
2023-05-06T05:59:49.470Z,101079.94
2023-05-06T06:02:23.731Z,101078.72
2023-05-06T06:04:55.353Z,101081.38
2023-05-06T06:07:27.259Z,101081.84
2023-05-06T06:09:58.736Z,101085.56
2023-05-06T06:12:30.365Z,101081.09
2023-05-06T06:15:01.822Z,101090.06
2023-05-06T06:17:35.730Z,101101.16
2023-05-06T06:20:07.255Z,101093.38
2023-05-06T06:22:38.737Z,101099.47
2023-05-06T06:25:10.919Z,101099.72
2023-05-06T06:27:42.904Z,101099.88
2023-05-06T06:30:14.894Z,101106.41
2023-05-06T06:32:46.430Z,101117.03
2023-05-06T06:35:18.392Z,101106.78
2023-05-06T06:37:49.863Z,101115.31
2023-05-06T06:40:21.571Z,101108.72
2023-05-06T06:42:53.028Z,101107.50
2023-05-06T06:45:24.647Z,101109.97
2023-05-06T06:47:56.150Z,101107.50
2023-05-06T06:50:27.951Z,101113.22
2023-05-06T06:52:59.412Z,101107.91
2023-05-06T06:55:31.181Z,101117.03
2023-05-06T06:58:02.989Z,101110.88
2023-05-06T07:00:34.495Z,101111.09
2023-05-06T07:03:06.628Z,101110.31
2023-05-06T07:05:38.175Z,101112.22
2023-05-06T07:08:09.651Z,101117.13
2023-05-06T07:10:41.105Z,101110.84
2023-05-06T07:13:12.960Z,101121.41
2023-05-06T07:15:44.525Z,101124.16
2023-05-06T07:18:16.060Z,101116.50
2023-05-06T07:20:47.615Z,101127.09
2023-05-06T07:23:19.272Z,101123.91
2023-05-06T07:25:50.960Z,101118.00
2023-05-06T07:28:22.872Z,101123.34
2023-05-06T07:30:54.582Z,101129.09
2023-05-06T07:33:26.122Z,101128.91
2023-05-06T07:35:58.043Z,101141.94
2023-05-06T07:38:29.519Z,101143.38
2023-05-06T07:41:02.129Z,101138.88
2023-05-06T07:43:33.569Z,101139.47
2023-05-06T07:46:05.556Z,101140.53
2023-05-06T07:48:37.016Z,101145.66
2023-05-06T07:51:08.621Z,101135.22
2023-05-06T07:53:40.147Z,101134.84
2023-05-06T07:56:12.106Z,101138.78
2023-05-06T07:58:43.918Z,101144.66
2023-05-06T08:01:15.352Z,101143.00
2023-05-06T08:03:47.477Z,101156.69
2023-05-06T08:06:19.002Z,101157.13
2023-05-06T08:08:50.471Z,101157.13
2023-05-06T08:11:21.939Z,101160.59
2023-05-06T08:13:53.820Z,101167.16
2023-05-06T08:16:25.775Z,101168.59
2023-05-06T08:18:57.628Z,101171.22
2023-05-06T08:21:29.126Z,101169.75
2023-05-06T08:24:00.956Z,101171.66
2023-05-06T08:26:32.907Z,101178.59
2023-05-06T08:29:04.695Z,101173.50
2023-05-06T08:31:36.271Z,101171.03
2023-05-06T08:34:07.771Z,101179.00
2023-05-06T08:36:39.247Z,101172.50
2023-05-06T08:39:10.709Z,101180.13
2023-05-06T08:41:42.515Z,101006.84
2023-05-06T08:44:13.990Z,101177.38
2023-05-06T08:46:45.679Z,101178.81
2023-05-06T08:49:17.133Z,101188.00
2023-05-06T08:51:48.854Z,101186.00
2023-05-06T08:54:20.305Z,101200.78
2023-05-06T08:56:52.088Z,101205.22
2023-05-06T08:59:23.830Z,101205.59
2023-05-06T09:01:55.694Z,101202.56
2023-05-06T09:04:27.687Z,101207.84
2023-05-06T09:06:59.146Z,101205.84
2023-05-06T09:09:31.078Z,101201.16
2023-05-06T09:12:02.507Z,101207.75
2023-05-06T09:14:36.923Z,101214.25
2023-05-06T09:17:08.419Z,101220.06
2023-05-06T09:19:39.922Z,101209.41
2023-05-06T09:22:11.396Z,101218.84
2023-05-06T09:24:43.168Z,101217.41
2023-05-06T09:27:15.291Z,101219.06
2023-05-06T09:29:47.158Z,101216.19
2023-05-06T09:32:18.963Z,101220.09
2023-05-06T09:34:50.473Z,101221.72
2023-05-06T09:37:22.068Z,101223.34
2023-05-06T09:39:53.519Z,101216.81
2023-05-06T09:42:25.350Z,101220.09
2023-05-06T09:44:58.120Z,101218.50
2023-05-06T09:47:30.856Z,101214.63
2023-05-06T09:50:02.485Z,101212.56
2023-05-06T09:52:33.947Z,101223.03
2023-05-06T09:55:06.053Z,101211.78
2023-05-06T09:57:37.545Z,101226.34
2023-05-06T10:00:09.401Z,101221.84
2023-05-06T10:02:41.095Z,101222.47
2023-05-06T10:05:13.639Z,101234.34
2023-05-06T10:07:45.529Z,101234.53
2023-05-06T10:10:17.536Z,101239.03
2023-05-06T10:12:49.013Z,101239.47
2023-05-06T10:15:20.898Z,101234.75
2023-05-06T10:17:52.382Z,101231.84
2023-05-06T10:20:24.174Z,101246.22
2023-05-06T10:22:55.965Z,101242.78
2023-05-06T10:25:28.001Z,101249.31
2023-05-06T10:27:59.651Z,101248.09
2023-05-06T10:30:31.428Z,101243.59
2023-05-06T10:33:03.308Z,101242.78
2023-05-06T10:35:34.867Z,101252.41
2023-05-06T10:38:06.371Z,101245.63
2023-05-06T10:40:37.821Z,101242.34
2023-05-06T10:43:09.794Z,101249.34
2023-05-06T10:45:41.292Z,101250.56
2023-05-06T10:48:13.011Z,101246.06
2023-05-06T10:50:46.694Z,101244.38
2023-05-06T10:53:18.637Z,101242.78
2023-05-06T10:55:50.306Z,101243.59
2023-05-06T10:58:21.738Z,101243.59
2023-05-06T11:00:53.646Z,101249.13
2023-05-06T11:03:25.329Z,101242.56
2023-05-06T11:05:57.036Z,101246.47
2023-05-06T11:08:28.478Z,101251.16
2023-05-06T11:11:00.437Z,101252.41
2023-05-06T11:13:32.016Z,101257.28
2023-05-06T11:16:03.545Z,101257.75
2023-05-06T11:18:35.006Z,101268.00
2023-05-06T11:21:06.994Z,101262.03
2023-05-06T11:23:38.441Z,101262.88
2023-05-06T11:26:09.905Z,101267.97
2023-05-06T11:28:41.408Z,101270.81
2023-05-06T11:31:12.935Z,101267.50
2023-05-06T11:33:44.867Z,101273.44
2023-05-06T11:36:16.322Z,101280.47
2023-05-06T11:38:47.881Z,101275.53
2023-05-06T11:41:19.309Z,101275.13
2023-05-06T11:43:50.932Z,101272.09
2023-05-06T11:46:22.452Z,101290.75
2023-05-06T11:48:54.055Z,101280.50
2023-05-06T11:51:25.540Z,101292.34
2023-05-06T11:53:57.378Z,101289.63
2023-05-06T11:56:29.220Z,101295.66
2023-05-06T11:59:00.756Z,101301.81
2023-05-06T12:01:32.469Z,101305.94
2023-05-06T12:04:04.092Z,101308.41
2023-05-06T12:06:35.626Z,101310.44
2023-05-06T12:09:07.071Z,101309.91
2023-05-06T12:11:38.544Z,101316.72
2023-05-06T12:14:10.054Z,101317.06
2023-05-06T12:16:41.848Z,101320.34
2023-05-06T12:19:13.330Z,101322.16
2023-05-06T12:21:44.802Z,101329.16
2023-05-06T12:24:16.657Z,101331.81
2023-05-06T12:26:48.199Z,101338.19
2023-05-06T12:29:19.663Z,101342.34
2023-05-06T12:31:51.118Z,101343.38
2023-05-06T12:34:22.625Z,101349.53
2023-05-06T12:36:54.101Z,101341.59
2023-05-06T12:39:25.969Z,101350.34
2023-05-06T12:41:57.416Z,101354.22
2023-05-06T12:44:29.220Z,101365.69
2023-05-06T12:47:00.751Z,101356.44
2023-05-06T12:49:32.488Z,101368.78
2023-05-06T12:52:03.943Z,101365.28
2023-05-06T12:54:35.408Z,101366.53
2023-05-06T12:57:07.212Z,101356.81
2023-05-06T12:59:38.702Z,101365.22
2023-05-06T13:02:10.678Z,101370.22
2023-05-06T13:04:42.164Z,101371.84
2023-05-06T13:07:13.942Z,101381.03
2023-05-06T13:09:45.427Z,101378.03
2023-05-06T13:12:17.183Z,101381.09
2023-05-06T13:14:48.637Z,101373.94
2023-05-06T13:17:20.523Z,101378.00
2023-05-06T13:19:52.057Z,101370.69
2023-05-06T13:22:23.705Z,101379.31
2023-05-06T13:24:55.352Z,101376.66
2023-05-06T13:27:27.304Z,101372.53
2023-05-06T13:29:59.123Z,101376.00
2023-05-06T13:32:30.666Z,101376.38
2023-05-06T13:35:02.198Z,101375.16
2023-05-06T13:37:33.649Z,101376.78
2023-05-06T13:40:05.605Z,101386.00
2023-05-06T13:42:37.137Z,101379.84
2023-05-06T13:45:08.769Z,101383.19
2023-05-06T13:47:40.285Z,101384.25
2023-05-06T13:50:12.088Z,101387.78
2023-05-06T13:52:43.997Z,101384.06
2023-05-06T13:55:16.463Z,101385.94
2023-05-06T13:57:49.686Z,101387.59
2023-05-06T14:00:21.142Z,101394.34
2023-05-06T14:02:52.806Z,101396.22
2023-05-06T14:05:24.356Z,101394.56
2023-05-06T14:07:56.151Z,101397.63
2023-05-06T14:10:27.615Z,101396.13
2023-05-06T14:12:59.309Z,101385.47
2023-05-06T14:15:30.800Z,101392.38
2023-05-06T14:18:02.371Z,101385.03
2023-05-06T14:20:33.916Z,101384.44
2023-05-06T14:23:05.401Z,101381.81
2023-05-06T14:25:36.873Z,101383.41
2023-05-06T14:28:08.352Z,101382.94
2023-05-06T14:30:39.867Z,101378.44
2023-05-06T14:33:11.303Z,101382.53
2023-05-06T14:35:42.834Z,101384.84
2023-05-06T14:38:14.324Z,101380.81
2023-05-06T14:40:46.048Z,101379.81
2023-05-06T14:43:17.497Z,101383.88
2023-05-06T14:45:49.008Z,101386.13
2023-05-06T14:48:20.506Z,101382.03
2023-05-06T14:50:52.329Z,101382.44
2023-05-06T14:53:23.799Z,101388.41
2023-05-06T14:55:55.466Z,101387.94
2023-05-06T14:58:27.083Z,101389.97
2023-05-06T15:00:58.706Z,101399.19
2023-05-06T15:03:30.575Z,101403.41
2023-05-06T15:06:02.085Z,101400.47
2023-05-06T15:08:33.586Z,101399.22
2023-05-06T15:11:05.028Z,101410.13
2023-05-06T15:13:36.482Z,101417.44
2023-05-06T15:16:09.917Z,101418.84
2023-05-06T15:18:42.727Z,101414.78
2023-05-06T15:21:14.201Z,101419.59
2023-05-06T15:23:45.998Z,101417.72
2023-05-06T15:26:17.787Z,101423.25
2023-05-06T15:28:49.274Z,101427.34
2023-05-06T15:31:21.131Z,101419.25
2023-05-06T15:33:52.609Z,101415.84
2023-05-06T15:36:24.453Z,101414.19
2023-05-06T15:38:57.135Z,101414.84
2023-05-06T15:41:30.817Z,101417.72
2023-05-06T15:44:02.279Z,101417.94
2023-05-06T15:46:33.821Z,101422.50
2023-05-06T15:51:39.925Z,101425.81
2023-05-06T15:54:11.442Z,101427.84
2023-05-06T15:56:43.223Z,101430.75
2023-05-06T15:59:15.092Z,101430.41
2023-05-06T16:04:21.288Z,101423.22
2023-05-06T16:06:52.875Z,101419.91
2023-05-06T16:09:24.546Z,101426.72
2023-05-06T16:11:56.009Z,101418.34
2023-05-06T16:14:27.474Z,101433.84
2023-05-06T16:16:58.938Z,101435.69
2023-05-06T16:19:30.682Z,101438.94
2023-05-06T16:22:02.139Z,101439.06
2023-05-06T16:24:33.603Z,101438.22
2023-05-06T16:27:05.065Z,101438.38
2023-05-06T16:29:36.558Z,101434.56
2023-05-06T16:32:08.037Z,101439.72
2023-05-06T16:34:40.453Z,101444.19
2023-05-06T16:37:12.879Z,101439.75
2023-05-06T16:39:44.325Z,101448.78
2023-05-06T16:42:16.120Z,101445.50
2023-05-06T16:44:47.562Z,101447.31
2023-05-06T16:47:19.557Z,101447.31
2023-05-06T16:49:51.141Z,101440.09
2023-05-06T16:52:22.624Z,101446.44
2023-05-06T16:54:54.079Z,101441.78
2023-05-06T16:57:25.852Z,101443.34
2023-05-06T16:59:57.298Z,101445.75
2023-05-06T17:02:29.197Z,101450.50
2023-05-06T17:05:00.994Z,101453.69
2023-05-06T17:07:32.461Z,101452.91
2023-05-06T17:10:04.222Z,101458.09
2023-05-06T17:12:35.726Z,101461.28
2023-05-06T17:15:07.616Z,101462.72
2023-05-06T17:17:39.127Z,101463.88
2023-05-06T17:20:11.475Z,101472.13
2023-05-06T17:22:43.277Z,101472.19
2023-05-06T17:25:15.131Z,101471.09
2023-05-06T17:27:46.574Z,101469.53
2023-05-06T17:30:18.341Z,101465.97
2023-05-06T17:32:49.824Z,101474.56
2023-05-06T17:35:21.634Z,101472.31
2023-05-06T17:37:53.578Z,101468.53
2023-05-06T17:40:25.256Z,101471.69
2023-05-06T17:42:57.020Z,101477.38
2023-05-06T17:45:28.667Z,101474.44
2023-05-06T17:48:00.731Z,101468.91
2023-05-06T17:50:32.289Z,101462.00
2023-05-06T17:53:04.110Z,101473.34
2023-05-06T17:55:35.612Z,101471.13
2023-05-06T17:58:07.111Z,101473.34
2023-05-06T18:00:38.623Z,101472.72
2023-05-06T18:03:10.540Z,101479.06
2023-05-06T18:05:42.041Z,101482.00
2023-05-06T18:08:13.833Z,101489.16
2023-05-06T18:10:45.761Z,101488.91
2023-05-06T18:13:17.707Z,101487.13
2023-05-06T18:15:49.484Z,101485.31
2023-05-06T18:18:20.963Z,101483.59
2023-05-06T18:20:52.785Z,101485.44
2023-05-06T18:23:24.252Z,101489.28
2023-05-06T18:25:56.004Z,101493.72
2023-05-06T18:28:27.457Z,101500.31
2023-05-06T18:30:59.204Z,101503.28
2023-05-06T18:33:30.643Z,101497.16
2023-05-06T18:36:02.301Z,101505.38
2023-05-06T18:38:33.759Z,101503.00
2023-05-06T18:41:05.544Z,101511.06
2023-05-06T18:43:37.070Z,101512.09
2023-05-06T18:46:08.766Z,101515.38
2023-05-06T18:48:40.290Z,101516.91
2023-05-06T18:51:11.738Z,101518.41
2023-05-06T18:53:43.877Z,101523.47
2023-05-06T18:56:15.368Z,101523.09
2023-05-06T18:58:47.313Z,101526.53
2023-05-06T19:01:18.866Z,101518.66
2023-05-06T19:03:50.626Z,101521.94
2023-05-06T19:06:22.133Z,101518.34
2023-05-06T19:08:53.712Z,101528.34
2023-05-06T19:11:25.155Z,101533.28
2023-05-06T19:13:56.940Z,101531.66
2023-05-06T19:16:28.748Z,101541.00
2023-05-06T19:19:00.567Z,101535.44
2023-05-06T19:21:32.221Z,101538.09
2023-05-06T19:24:03.669Z,101541.28
2023-05-06T19:26:35.456Z,101535.19
2023-05-06T19:29:06.922Z,101533.97
2023-05-06T19:31:38.518Z,101533.78
2023-05-06T19:34:10.087Z,101530.13
2023-05-06T19:36:41.722Z,101537.00
2023-05-06T19:39:13.178Z,101530.31
2023-05-06T19:41:45.017Z,101535.00
2023-05-06T19:44:16.562Z,101547.91
2023-05-06T19:46:48.168Z,101544.34
2023-05-06T19:49:19.744Z,101535.06
2023-05-06T19:51:51.628Z,101537.28
2023-05-06T19:54:23.598Z,101537.91
2023-05-06T19:56:55.194Z,101530.88
2023-05-06T19:59:27.824Z,101536.38
2023-05-06T20:01:59.377Z,101531.06
2023-05-06T20:04:31.233Z,101411.34
2023-05-06T20:07:02.739Z,101545.38
2023-05-06T20:09:34.452Z,101541.88
2023-05-06T20:12:05.941Z,101542.31
2023-05-06T20:14:37.517Z,101540.69
2023-05-06T20:17:09.050Z,101546.91
2023-05-06T20:19:40.567Z,101555.88
2023-05-06T20:22:12.060Z,101547.38
2023-05-06T20:24:43.864Z,101554.91
2023-05-06T20:27:15.520Z,101556.91
2023-05-06T20:29:47.066Z,101554.44
2023-05-06T20:32:18.776Z,101556.81
2023-05-06T20:34:50.273Z,101556.38
2023-05-06T20:37:22.196Z,101560.38
2023-05-06T20:39:53.714Z,101552.59
2023-05-06T20:42:25.515Z,101558.66
2023-05-06T20:44:56.945Z,101556.91
2023-05-06T20:47:28.980Z,101559.03
2023-05-06T20:50:00.534Z,101565.44
2023-05-06T20:52:32.335Z,101561.31
2023-05-06T20:55:04.193Z,101562.97
2023-05-06T20:57:36.165Z,101562.59
2023-05-06T21:00:07.952Z,101562.31
2023-05-06T21:02:41.318Z,101566.63
2023-05-06T21:05:14.030Z,101561.19
2023-05-06T21:07:45.684Z,101570.47
2023-05-06T21:10:17.468Z,101574.41
2023-05-06T21:12:49.072Z,101562.50
2023-05-06T21:15:20.959Z,101569.75
2023-05-06T21:17:52.558Z,101572.50
2023-05-06T21:20:24.238Z,101573.03
2023-05-06T21:22:55.674Z,101569.38
2023-05-06T21:25:27.324Z,101573.22
2023-05-06T21:27:58.844Z,101447.47
2023-05-06T21:30:30.659Z,101577.06
2023-05-06T21:33:02.703Z,101572.75
2023-05-06T21:35:34.206Z,101572.69
2023-05-06T21:38:06.030Z,101571.69
2023-05-06T21:40:37.489Z,101566.00
2023-05-06T21:43:09.298Z,101581.75
2023-05-06T21:45:40.773Z,101567.53
2023-05-06T21:48:12.257Z,101565.69
2023-05-06T21:50:43.759Z,101577.25
2023-05-06T21:53:15.588Z,101574.78
2023-05-06T21:55:47.094Z,101572.41
2023-05-06T21:58:18.912Z,101573.66
2023-05-06T22:00:50.420Z,101577.81
2023-05-06T22:03:22.299Z,101584.66
2023-05-06T22:05:53.887Z,101584.31
2023-05-06T22:08:25.683Z,101580.19
2023-05-06T22:10:57.423Z,101579.72
2023-05-06T22:13:29.315Z,101572.69
2023-05-06T22:16:01.228Z,101582.38
2023-05-06T22:18:32.698Z,101583.03
2023-05-06T22:21:04.296Z,101583.47
2023-05-06T22:23:35.764Z,101585.31
2023-05-06T22:26:07.660Z,101582.66
2023-05-06T22:28:39.169Z,101580.00
2023-05-06T22:31:10.701Z,101582.66
2023-05-06T22:33:42.177Z,101590.94
2023-05-06T22:36:14.047Z,101590.09
2023-05-06T22:38:45.550Z,101594.22
2023-05-06T22:41:17.236Z,101591.19
2023-05-06T22:43:49.036Z,101591.81
2023-05-06T22:46:20.941Z,101601.25
2023-05-06T22:48:52.510Z,101589.91
2023-05-06T22:51:23.981Z,101590.63
2023-05-06T22:53:55.516Z,101594.03
2023-05-06T22:56:27.008Z,101594.47
2023-05-06T22:58:58.761Z,101596.63
2023-05-06T23:01:30.222Z,101595.75
2023-05-06T23:04:02.052Z,101605.75
2023-05-06T23:06:33.514Z,101596.88
2023-05-06T23:09:05.252Z,101598.97
2023-05-06T23:11:36.807Z,101598.53
2023-05-06T23:14:08.584Z,101606.75
2023-05-06T23:16:40.110Z,101603.47
2023-05-06T23:19:11.780Z,101600.00
2023-05-06T23:21:43.611Z,101601.63
2023-05-06T23:24:15.484Z,101598.78
2023-05-06T23:26:46.942Z,101601.72
2023-05-06T23:29:18.407Z,101593.09
2023-05-06T23:31:50.299Z,101595.13
2023-05-06T23:34:21.731Z,101601.19
2023-05-06T23:36:53.220Z,101596.31
2023-05-06T23:39:24.696Z,101598.78
2023-05-06T23:41:56.435Z,101604.94
2023-05-06T23:44:27.910Z,101601.72
2023-05-06T23:46:59.670Z,101600.81
2023-05-06T23:49:31.116Z,101606.41
2023-05-06T23:52:02.805Z,101607.41
2023-05-06T23:54:34.258Z,101606.41
2023-05-06T23:57:06.021Z,101603.00
2023-05-06T23:59:37.459Z,101609.56
